sensor_id;sensor_type;location;lat;lon;timestamp;P1;durP1;ratioP1;P2;durP2;ratioP2
81463;SDS011;70885;52.490;5.428;2023-06-26T00:06:40;6.70;;;4.40;;
81463;SDS011;70885;52.490;5.428;2023-06-26T00:16:42;7.00;;;5.20;;
81463;SDS011;70885;52.490;5.428;2023-06-26T00:26:46;5.13;;;3.63;;
81463;SDS011;70885;52.490;5.428;2023-06-26T00:36:48;7.45;;;4.20;;
81463;SDS011;70885;52.490;5.428;2023-06-26T00:46:50;4.65;;;4.03;;
81463;SDS011;70885;52.490;5.428;2023-06-26T00:56:52;6.20;;;4.70;;
81463;SDS011;70885;52.490;5.428;2023-06-26T01:06:53;7.28;;;4.95;;
81463;SDS011;70885;52.490;5.428;2023-06-26T01:16:56;7.25;;;4.60;;
81463;SDS011;70885;52.490;5.428;2023-06-26T01:26:59;5.95;;;4.32;;
81463;SDS011;70885;52.490;5.428;2023-06-26T01:37:02;6.55;;;3.40;;
81463;SDS011;70885;52.490;5.428;2023-06-26T01:47:04;6.57;;;3.40;;
81463;SDS011;70885;52.490;5.428;2023-06-26T01:57:06;4.90;;;3.08;;
81463;SDS011;70885;52.490;5.428;2023-06-26T02:07:10;5.32;;;3.10;;
81463;SDS011;70885;52.490;5.428;2023-06-26T02:17:12;5.88;;;3.60;;
81463;SDS011;70885;52.490;5.428;2023-06-26T02:27:13;7.13;;;2.67;;
81463;SDS011;70885;52.490;5.428;2023-06-26T02:37:15;7.50;;;3.30;;
81463;SDS011;70885;52.490;5.428;2023-06-26T02:47:17;6.45;;;3.05;;
81463;SDS011;70885;52.490;5.428;2023-06-26T02:57:19;8.05;;;2.70;;
81463;SDS011;70885;52.490;5.428;2023-06-26T03:07:20;6.82;;;3.20;;
81463;SDS011;70885;52.490;5.428;2023-06-26T03:17:22;9.13;;;3.03;;
81463;SDS011;70885;52.490;5.428;2023-06-26T03:27:23;11.80;;;3.25;;
81463;SDS011;70885;52.490;5.428;2023-06-26T03:37:25;9.18;;;2.85;;
81463;SDS011;70885;52.490;5.428;2023-06-26T03:47:26;5.70;;;2.15;;
81463;SDS011;70885;52.490;5.428;2023-06-26T03:57:28;7.80;;;3.13;;
81463;SDS011;70885;52.490;5.428;2023-06-26T04:07:29;5.13;;;2.47;;
81463;SDS011;70885;52.490;5.428;2023-06-26T04:17:32;4.57;;;2.13;;
81463;SDS011;70885;52.490;5.428;2023-06-26T04:27:33;4.43;;;2.60;;
81463;SDS011;70885;52.490;5.428;2023-06-26T04:37:37;4.32;;;1.45;;
81463;SDS011;70885;52.490;5.428;2023-06-26T04:47:40;4.15;;;1.50;;
81463;SDS011;70885;52.490;5.428;2023-06-26T04:57:41;3.72;;;0.73;;
81463;SDS011;70885;52.490;5.428;2023-06-26T05:07:43;4.20;;;1.08;;
81463;SDS011;70885;52.490;5.428;2023-06-26T05:17:44;3.55;;;0.70;;
81463;SDS011;70885;52.490;5.428;2023-06-26T05:27:46;3.25;;;1.35;;
81463;SDS011;70885;52.490;5.428;2023-06-26T05:37:48;3.05;;;1.27;;
81463;SDS011;70885;52.490;5.428;2023-06-26T05:47:51;2.65;;;0.63;;
81463;SDS011;70885;52.490;5.428;2023-06-26T05:57:53;1.98;;;0.80;;
81463;SDS011;70885;52.490;5.428;2023-06-26T06:07:55;3.90;;;1.38;;
81463;SDS011;70885;52.490;5.428;2023-06-26T06:17:57;3.22;;;1.40;;
81463;SDS011;70885;52.490;5.428;2023-06-26T06:27:58;3.22;;;1.40;;
81463;SDS011;70885;52.490;5.428;2023-06-26T06:38:00;2.80;;;1.08;;
81463;SDS011;70885;52.490;5.428;2023-06-26T06:48:01;4.55;;;1.10;;
81463;SDS011;70885;52.490;5.428;2023-06-26T06:58:03;1.83;;;0.95;;
81463;SDS011;70885;52.490;5.428;2023-06-26T07:08:06;3.65;;;1.00;;
81463;SDS011;70885;52.490;5.428;2023-06-26T07:18:07;4.18;;;1.88;;
81463;SDS011;70885;52.490;5.428;2023-06-26T07:28:10;2.08;;;1.02;;
81463;SDS011;70885;52.490;5.428;2023-06-26T07:38:21;5.07;;;0.90;;
81463;SDS011;70885;52.490;5.428;2023-06-26T07:44:22;6.35;;;1.40;;
81463;SDS011;70885;52.490;5.428;2023-06-26T07:50:24;6.28;;;1.30;;
81463;SDS011;70885;52.490;5.428;2023-06-26T07:56:25;5.38;;;1.38;;
81463;SDS011;70885;52.490;5.428;2023-06-26T08:02:27;6.05;;;1.38;;
81463;SDS011;70885;52.490;5.428;2023-06-26T08:08:29;2.42;;;0.93;;
81463;SDS011;70885;52.490;5.428;2023-06-26T08:14:30;5.80;;;1.20;;
81463;SDS011;70885;52.490;5.428;2023-06-26T08:20:32;2.75;;;1.55;;
81463;SDS011;70885;52.490;5.428;2023-06-26T08:26:37;2.08;;;1.00;;
81463;SDS011;70885;52.490;5.428;2023-06-26T08:32:39;3.55;;;1.35;;
81463;SDS011;70885;52.490;5.428;2023-06-26T08:38:41;3.75;;;1.60;;
81463;SDS011;70885;52.490;5.428;2023-06-26T08:44:42;6.75;;;1.10;;
81463;SDS011;70885;52.490;5.428;2023-06-26T08:51:04;4.50;;;1.17;;
81463;SDS011;70885;52.490;5.428;2023-06-26T08:57:10;5.07;;;1.20;;
81463;SDS011;70885;52.490;5.428;2023-06-26T09:03:12;4.07;;;1.23;;
81463;SDS011;70885;52.490;5.428;2023-06-26T09:09:14;3.83;;;1.23;;
81463;SDS011;70885;52.490;5.428;2023-06-26T09:15:19;3.47;;;0.73;;
81463;SDS011;70885;52.490;5.428;2023-06-26T09:21:21;4.20;;;0.90;;
81463;SDS011;70885;52.490;5.428;2023-06-26T09:27:25;2.58;;;0.75;;
81463;SDS011;70885;52.490;5.428;2023-06-26T09:33:26;5.07;;;1.10;;
81463;SDS011;70885;52.490;5.428;2023-06-26T09:39:31;6.15;;;1.30;;
81463;SDS011;70885;52.490;5.428;2023-06-26T09:45:34;5.65;;;1.00;;
81463;SDS011;70885;52.490;5.428;2023-06-26T09:51:38;3.60;;;0.70;;
81463;SDS011;70885;52.490;5.428;2023-06-26T09:57:42;3.25;;;0.93;;
81463;SDS011;70885;52.490;5.428;2023-06-26T10:03:47;3.45;;;1.02;;
81463;SDS011;70885;52.490;5.428;2023-06-26T10:09:48;5.18;;;0.55;;
81463;SDS011;70885;52.490;5.428;2023-06-26T10:15:52;6.22;;;0.55;;
81463;SDS011;70885;52.490;5.428;2023-06-26T10:21:55;2.85;;;0.32;;
81463;SDS011;70885;52.490;5.428;2023-06-26T10:27:58;2.90;;;0.43;;
81463;SDS011;70885;52.490;5.428;2023-06-26T10:34:02;1.15;;;0.28;;
81463;SDS011;70885;52.490;5.428;2023-06-26T10:40:04;3.85;;;0.40;;
81463;SDS011;70885;52.490;5.428;2023-06-26T10:46:06;4.45;;;0.80;;
81463;SDS011;70885;52.490;5.428;2023-06-26T10:52:10;1.75;;;0.38;;
81463;SDS011;70885;52.490;5.428;2023-06-26T11:10:53;1.20;;;0.40;;
81463;SDS011;70885;52.490;5.428;2023-06-26T11:16:57;4.65;;;0.30;;
81463;SDS011;70885;52.490;5.428;2023-06-26T11:22:59;1.77;;;0.47;;
81463;SDS011;70885;52.490;5.428;2023-06-26T11:29:01;4.30;;;0.40;;
81463;SDS011;70885;52.490;5.428;2023-06-26T11:35:03;3.67;;;0.45;;
81463;SDS011;70885;52.490;5.428;2023-06-26T11:41:06;6.57;;;0.70;;
81463;SDS011;70885;52.490;5.428;2023-06-26T11:47:13;0.52;;;0.30;;
81463;SDS011;70885;52.490;5.428;2023-06-26T11:53:19;2.80;;;0.45;;
81463;SDS011;70885;52.490;5.428;2023-06-26T11:59:20;1.42;;;0.30;;
81463;SDS011;70885;52.490;5.428;2023-06-26T12:05:22;1.90;;;0.30;;
81463;SDS011;70885;52.490;5.428;2023-06-26T12:11:24;2.67;;;0.30;;
81463;SDS011;70885;52.490;5.428;2023-06-26T12:17:27;4.80;;;0.35;;
81463;SDS011;70885;52.490;5.428;2023-06-26T12:23:33;3.15;;;0.50;;
81463;SDS011;70885;52.490;5.428;2023-06-26T12:29:37;1.88;;;0.40;;
81463;SDS011;70885;52.490;5.428;2023-06-26T12:35:40;0.55;;;0.25;;
81463;SDS011;70885;52.490;5.428;2023-06-26T12:48:12;3.33;;;0.32;;
81463;SDS011;70885;52.490;5.428;2023-06-26T12:54:15;2.95;;;0.30;;
81463;SDS011;70885;52.490;5.428;2023-06-26T13:00:16;3.42;;;0.50;;
81463;SDS011;70885;52.490;5.428;2023-06-26T13:06:18;1.92;;;0.63;;
81463;SDS011;70885;52.490;5.428;2023-06-26T13:12:20;1.15;;;0.30;;
81463;SDS011;70885;52.490;5.428;2023-06-26T13:18:21;1.50;;;0.40;;
81463;SDS011;70885;52.490;5.428;2023-06-26T13:24:23;1.73;;;0.32;;
81463;SDS011;70885;52.490;5.428;2023-06-26T13:30:24;2.38;;;0.40;;
81463;SDS011;70885;52.490;5.428;2023-06-26T13:36:26;2.42;;;0.43;;
81463;SDS011;70885;52.490;5.428;2023-06-26T13:42:28;3.13;;;0.50;;
81463;SDS011;70885;52.490;5.428;2023-06-26T13:48:30;1.00;;;0.28;;
81463;SDS011;70885;52.490;5.428;2023-06-26T13:54:33;3.70;;;0.52;;
81463;SDS011;70885;52.490;5.428;2023-06-26T14:00:37;0.77;;;0.22;;
81463;SDS011;70885;52.490;5.428;2023-06-26T14:06:39;3.08;;;0.45;;
81463;SDS011;70885;52.490;5.428;2023-06-26T14:12:40;2.67;;;0.40;;
81463;SDS011;70885;52.490;5.428;2023-06-26T14:18:42;2.72;;;0.40;;
81463;SDS011;70885;52.490;5.428;2023-06-26T14:24:44;3.67;;;0.30;;
81463;SDS011;70885;52.490;5.428;2023-06-26T14:30:45;1.40;;;0.50;;
81463;SDS011;70885;52.490;5.428;2023-06-26T14:36:47;2.67;;;0.35;;
81463;SDS011;70885;52.490;5.428;2023-06-26T14:42:48;2.58;;;0.40;;
81463;SDS011;70885;52.490;5.428;2023-06-26T14:48:51;2.80;;;0.35;;
81463;SDS011;70885;52.490;5.428;2023-06-26T14:54:52;2.97;;;0.75;;
81463;SDS011;70885;52.490;5.428;2023-06-26T15:00:54;1.50;;;0.20;;
81463;SDS011;70885;52.490;5.428;2023-06-26T15:06:56;4.00;;;0.45;;
81463;SDS011;70885;52.490;5.428;2023-06-26T15:12:59;1.48;;;0.22;;
81463;SDS011;70885;52.490;5.428;2023-06-26T15:19:00;3.72;;;0.50;;
81463;SDS011;70885;52.490;5.428;2023-06-26T15:25:02;1.70;;;0.50;;
81463;SDS011;70885;52.490;5.428;2023-06-26T15:31:03;1.25;;;0.10;;
81463;SDS011;70885;52.490;5.428;2023-06-26T15:37:05;0.65;;;0.30;;
81463;SDS011;70885;52.490;5.428;2023-06-26T15:43:07;3.58;;;0.40;;
81463;SDS011;70885;52.490;5.428;2023-06-26T15:49:08;3.33;;;0.57;;
81463;SDS011;70885;52.490;5.428;2023-06-26T15:55:10;1.67;;;0.40;;
81463;SDS011;70885;52.490;5.428;2023-06-26T16:01:11;2.15;;;0.40;;
81463;SDS011;70885;52.490;5.428;2023-06-26T16:07:14;0.98;;;0.30;;
81463;SDS011;70885;52.490;5.428;2023-06-26T16:13:15;2.45;;;0.40;;
81463;SDS011;70885;52.490;5.428;2023-06-26T16:19:20;1.67;;;0.25;;
81463;SDS011;70885;52.490;5.428;2023-06-26T16:25:22;2.90;;;0.40;;
81463;SDS011;70885;52.490;5.428;2023-06-26T16:31:23;2.53;;;0.60;;
81463;SDS011;70885;52.490;5.428;2023-06-26T16:37:25;2.30;;;0.28;;
81463;SDS011;70885;52.490;5.428;2023-06-26T16:43:26;3.20;;;0.30;;
81463;SDS011;70885;52.490;5.428;2023-06-26T16:49:28;1.42;;;0.50;;
81463;SDS011;70885;52.490;5.428;2023-06-26T16:55:29;2.83;;;0.60;;
81463;SDS011;70885;52.490;5.428;2023-06-26T17:01:31;1.88;;;0.30;;
81463;SDS011;70885;52.490;5.428;2023-06-26T17:07:33;1.98;;;0.40;;
81463;SDS011;70885;52.490;5.428;2023-06-26T17:13:36;3.53;;;0.30;;
81463;SDS011;70885;52.490;5.428;2023-06-26T17:19:38;1.13;;;0.30;;
81463;SDS011;70885;52.490;5.428;2023-06-26T17:25:40;3.50;;;0.60;;
81463;SDS011;70885;52.490;5.428;2023-06-26T17:31:42;4.03;;;0.30;;
81463;SDS011;70885;52.490;5.428;2023-06-26T17:37:43;4.20;;;0.30;;
81463;SDS011;70885;52.490;5.428;2023-06-26T17:43:45;1.20;;;0.38;;
81463;SDS011;70885;52.490;5.428;2023-06-26T17:49:47;5.57;;;0.45;;
81463;SDS011;70885;52.490;5.428;2023-06-26T17:55:48;1.88;;;0.25;;
81463;SDS011;70885;52.490;5.428;2023-06-26T18:01:50;1.75;;;0.20;;
81463;SDS011;70885;52.490;5.428;2023-06-26T18:07:51;1.73;;;0.75;;
81463;SDS011;70885;52.490;5.428;2023-06-26T18:14:05;2.15;;;0.30;;
81463;SDS011;70885;52.490;5.428;2023-06-26T18:20:06;2.13;;;0.22;;
81463;SDS011;70885;52.490;5.428;2023-06-26T18:26:09;1.38;;;0.30;;
81463;SDS011;70885;52.490;5.428;2023-06-26T18:32:11;1.95;;;0.22;;
81463;SDS011;70885;52.490;5.428;2023-06-26T18:38:12;2.63;;;0.28;;
81463;SDS011;70885;52.490;5.428;2023-06-26T18:44:14;7.05;;;0.50;;
81463;SDS011;70885;52.490;5.428;2023-06-26T18:50:16;2.08;;;0.63;;
81463;SDS011;70885;52.490;5.428;2023-06-26T18:56:19;3.95;;;0.30;;
81463;SDS011;70885;52.490;5.428;2023-06-26T19:02:20;2.05;;;0.30;;
81463;SDS011;70885;52.490;5.428;2023-06-26T19:08:22;2.72;;;0.20;;
81463;SDS011;70885;52.490;5.428;2023-06-26T19:20:49;0.98;;;0.38;;
81463;SDS011;70885;52.490;5.428;2023-06-26T19:25:51;2.72;;;0.63;;
81463;SDS011;70885;52.490;5.428;2023-06-26T19:30:52;2.15;;;0.40;;
81463;SDS011;70885;52.490;5.428;2023-06-26T19:35:54;4.03;;;0.77;;
81463;SDS011;70885;52.490;5.428;2023-06-26T19:40:56;0.93;;;0.60;;
81463;SDS011;70885;52.490;5.428;2023-06-26T19:45:58;0.93;;;0.43;;
81463;SDS011;70885;52.490;5.428;2023-06-26T19:51:01;2.53;;;0.65;;
81463;SDS011;70885;52.490;5.428;2023-06-26T19:56:04;3.03;;;0.38;;
81463;SDS011;70885;52.490;5.428;2023-06-26T20:01:06;1.30;;;0.45;;
81463;SDS011;70885;52.490;5.428;2023-06-26T20:06:07;0.98;;;0.32;;
81463;SDS011;70885;52.490;5.428;2023-06-26T20:11:09;0.55;;;0.30;;
81463;SDS011;70885;52.490;5.428;2023-06-26T20:16:11;7.00;;;1.05;;
81463;SDS011;70885;52.490;5.428;2023-06-26T20:21:12;2.40;;;0.50;;
81463;SDS011;70885;52.490;5.428;2023-06-26T20:26:14;1.80;;;0.35;;
81463;SDS011;70885;52.490;5.428;2023-06-26T20:31:16;1.17;;;0.30;;
81463;SDS011;70885;52.490;5.428;2023-06-26T20:36:17;1.75;;;0.82;;
81463;SDS011;70885;52.490;5.428;2023-06-26T20:41:19;0.98;;;0.40;;
81463;SDS011;70885;52.490;5.428;2023-06-26T20:46:21;3.05;;;0.40;;
81463;SDS011;70885;52.490;5.428;2023-06-26T20:51:29;4.65;;;0.60;;
81463;SDS011;70885;52.490;5.428;2023-06-26T20:56:31;1.13;;;0.60;;
81463;SDS011;70885;52.490;5.428;2023-06-26T21:01:32;1.92;;;0.40;;
81463;SDS011;70885;52.490;5.428;2023-06-26T21:06:34;1.50;;;0.32;;
81463;SDS011;70885;52.490;5.428;2023-06-26T21:11:36;0.57;;;0.30;;
81463;SDS011;70885;52.490;5.428;2023-06-26T21:16:37;2.72;;;0.60;;
81463;SDS011;70885;52.490;5.428;2023-06-26T21:21:39;0.73;;;0.50;;
81463;SDS011;70885;52.490;5.428;2023-06-26T21:26:40;2.17;;;0.70;;
81463;SDS011;70885;52.490;5.428;2023-06-26T21:31:42;4.13;;;0.70;;
81463;SDS011;70885;52.490;5.428;2023-06-26T21:36:44;2.55;;;0.60;;
81463;SDS011;70885;52.490;5.428;2023-06-26T21:41:45;2.97;;;0.50;;
81463;SDS011;70885;52.490;5.428;2023-06-26T21:46:47;3.28;;;0.50;;
81463;SDS011;70885;52.490;5.428;2023-06-26T21:51:49;2.85;;;0.60;;
81463;SDS011;70885;52.490;5.428;2023-06-26T21:56:50;2.92;;;0.57;;
81463;SDS011;70885;52.490;5.428;2023-06-26T22:01:52;1.60;;;0.40;;
81463;SDS011;70885;52.490;5.428;2023-06-26T22:06:54;3.10;;;0.32;;
81463;SDS011;70885;52.490;5.428;2023-06-26T22:11:56;0.88;;;0.52;;
81463;SDS011;70885;52.490;5.428;2023-06-26T22:16:58;2.03;;;0.55;;
81463;SDS011;70885;52.490;5.428;2023-06-26T22:22:00;2.60;;;1.33;;
81463;SDS011;70885;52.490;5.428;2023-06-26T22:27:01;5.30;;;0.90;;
81463;SDS011;70885;52.490;5.428;2023-06-26T22:32:03;3.83;;;0.80;;
81463;SDS011;70885;52.490;5.428;2023-06-26T22:37:05;3.75;;;0.80;;
81463;SDS011;70885;52.490;5.428;2023-06-26T22:42:07;3.03;;;0.90;;
81463;SDS011;70885;52.490;5.428;2023-06-26T22:47:11;4.70;;;1.00;;
81463;SDS011;70885;52.490;5.428;2023-06-26T22:52:12;5.15;;;1.20;;
81463;SDS011;70885;52.490;5.428;2023-06-26T22:57:14;2.08;;;0.75;;
81463;SDS011;70885;52.490;5.428;2023-06-26T23:02:15;2.85;;;0.82;;
81463;SDS011;70885;52.490;5.428;2023-06-26T23:07:17;5.90;;;0.98;;
81463;SDS011;70885;52.490;5.428;2023-06-26T23:12:21;2.28;;;0.60;;
81463;SDS011;70885;52.490;5.428;2023-06-26T23:17:23;2.13;;;0.70;;
81463;SDS011;70885;52.490;5.428;2023-06-26T23:22:24;2.47;;;0.88;;
81463;SDS011;70885;52.490;5.428;2023-06-26T23:27:26;2.47;;;0.65;;
81463;SDS011;70885;52.490;5.428;2023-06-26T23:32:27;4.18;;;1.35;;
81463;SDS011;70885;52.490;5.428;2023-06-26T23:37:29;2.08;;;1.23;;
81463;SDS011;70885;52.490;5.428;2023-06-26T23:42:31;5.05;;;1.23;;
81463;SDS011;70885;52.490;5.428;2023-06-26T23:47:32;3.55;;;0.88;;
81463;SDS011;70885;52.490;5.428;2023-06-26T23:52:34;2.92;;;1.10;;
81463;SDS011;70885;52.490;5.428;2023-06-26T23:57:35;2.05;;;1.10;;
